Terminal Aerodrome Forecast
Issued by NWS

Home | Current Version | Previous Version | Text Only | Print | Product List | Glossary On
Versions: 1 2 3 4 5 6 7 8 9 10 11 12 13 14 15 16
000
FTUS45 KFGZ 290529
TAFSEZ
TAF
KSEZ 290529Z 2906/3006 04012KT P6SM FEW100
     FM291800 19007KT P6SM SCT090 PROB30 2918/2924 VRB15G25KT 4SM
      -TSRA BKN080CB
     FM300200 05010KT P6SM FEW100
      AMD NOT SKED=

USA.gov is the U.S. government's official web portal to all federal, state and local government web resources and services.